sensor_id;sensor_type;location;lat;lon;timestamp;pressure;altitude;pressure_sealevel;temperature;humidity
76434;BME280;65265;53.200;6.080;2022-12-24T00:02:19;100330.25;;;5.97;99.41
76434;BME280;65265;53.200;6.080;2022-12-24T00:07:11;100337.06;;;5.98;99.54
76434;BME280;65265;53.200;6.080;2022-12-24T00:12:03;100338.72;;;5.98;99.46
76434;BME280;65265;53.200;6.080;2022-12-24T00:16:56;100358.97;;;5.96;99.57
76434;BME280;65265;53.200;6.080;2022-12-24T00:21:48;100360.84;;;6.00;99.58
76434;BME280;65265;53.200;6.080;2022-12-24T00:26:39;100351.97;;;6.08;99.33
76434;BME280;65265;53.200;6.080;2022-12-24T00:31:31;100352.44;;;6.01;99.39
76434;BME280;65265;53.200;6.080;2022-12-24T00:36:23;100366.63;;;5.98;99.37
76434;BME280;65265;53.200;6.080;2022-12-24T00:41:15;100363.25;;;5.97;99.46
76434;BME280;65265;53.200;6.080;2022-12-24T00:46:18;100372.59;;;5.98;99.45
76434;BME280;65265;53.200;6.080;2022-12-24T00:51:09;100368.31;;;5.97;99.58
76434;BME280;65265;53.200;6.080;2022-12-24T00:56:02;100371.81;;;5.99;99.71
76434;BME280;65265;53.200;6.080;2022-12-24T01:00:54;100379.41;;;5.99;99.53
76434;BME280;65265;53.200;6.080;2022-12-24T01:05:45;100379.41;;;5.99;99.49
76434;BME280;65265;53.200;6.080;2022-12-24T01:10:40;100374.44;;;6.01;99.55
76434;BME280;65265;53.200;6.080;2022-12-24T01:15:35;100393.84;;;6.00;99.58
76434;BME280;65265;53.200;6.080;2022-12-24T01:20:27;100391.31;;;6.00;99.62
76434;BME280;65265;53.200;6.080;2022-12-24T01:25:20;100397.19;;;5.99;99.51
76434;BME280;65265;53.200;6.080;2022-12-24T01:30:12;100404.81;;;5.99;99.53
76434;BME280;65265;53.200;6.080;2022-12-24T01:35:07;100418.56;;;6.04;99.51
76434;BME280;65265;53.200;6.080;2022-12-24T01:39:59;100421.91;;;6.03;99.57
76434;BME280;65265;53.200;6.080;2022-12-24T01:45:37;100422.09;;;6.06;99.38
76434;BME280;65265;53.200;6.080;2022-12-24T01:50:32;100428.91;;;6.07;99.73
76434;BME280;65265;53.200;6.080;2022-12-24T01:55:24;100437.38;;;6.08;99.72
76434;BME280;65265;53.200;6.080;2022-12-24T02:00:16;100449.50;;;6.13;99.71
76434;BME280;65265;53.200;6.080;2022-12-24T02:05:11;100453.00;;;6.15;99.63
76434;BME280;65265;53.200;6.080;2022-12-24T02:10:11;100453.16;;;6.18;99.63
76434;BME280;65265;53.200;6.080;2022-12-24T02:15:03;100454.09;;;6.20;99.91
76434;BME280;65265;53.200;6.080;2022-12-24T02:20:13;100456.94;;;6.26;99.81
76434;BME280;65265;53.200;6.080;2022-12-24T02:25:27;100468.13;;;6.30;99.85
76434;BME280;65265;53.200;6.080;2022-12-24T02:30:30;100481.94;;;6.35;99.80
76434;BME280;65265;53.200;6.080;2022-12-24T02:35:31;100475.19;;;6.35;99.89
76434;BME280;65265;53.200;6.080;2022-12-24T02:40:28;100483.91;;;6.40;99.95
76434;BME280;65265;53.200;6.080;2022-12-24T02:45:24;100488.81;;;6.53;99.94
76434;BME280;65265;53.200;6.080;2022-12-24T02:50:18;100497.69;;;6.61;99.86
76434;BME280;65265;53.200;6.080;2022-12-24T02:55:12;100494.75;;;6.71;100.00
76434;BME280;65265;53.200;6.080;2022-12-24T03:00:07;100507.88;;;6.79;99.93
76434;BME280;65265;53.200;6.080;2022-12-24T03:05:09;100507.50;;;6.89;100.00
76434;BME280;65265;53.200;6.080;2022-12-24T03:10:13;100519.94;;;7.00;99.92
76434;BME280;65265;53.200;6.080;2022-12-24T03:15:12;100531.19;;;7.05;99.57
76434;BME280;65265;53.200;6.080;2022-12-24T03:20:07;100538.41;;;6.96;99.24
76434;BME280;65265;53.200;6.080;2022-12-24T03:25:00;100540.75;;;6.93;99.13
76434;BME280;65265;53.200;6.080;2022-12-24T03:29:53;100546.81;;;6.95;99.02
76434;BME280;65265;53.200;6.080;2022-12-24T03:34:45;100558.06;;;7.00;99.21
76434;BME280;65265;53.200;6.080;2022-12-24T03:39:37;100557.88;;;7.13;99.05
76434;BME280;65265;53.200;6.080;2022-12-24T03:44:28;100566.16;;;7.26;99.01
76434;BME280;65265;53.200;6.080;2022-12-24T03:49:21;100558.91;;;7.34;98.96
76434;BME280;65265;53.200;6.080;2022-12-24T03:54:12;100567.06;;;7.44;98.96
76434;BME280;65265;53.200;6.080;2022-12-24T03:59:04;100571.25;;;7.44;98.86
76434;BME280;65265;53.200;6.080;2022-12-24T04:03:56;100570.75;;;7.33;98.82
76434;BME280;65265;53.200;6.080;2022-12-24T04:08:49;100587.81;;;7.36;98.85
76434;BME280;65265;53.200;6.080;2022-12-24T04:13:41;100597.84;;;7.33;98.85
76434;BME280;65265;53.200;6.080;2022-12-24T04:18:33;100604.69;;;7.34;98.95
76434;BME280;65265;53.200;6.080;2022-12-24T04:23:25;100607.22;;;7.34;98.65
76434;BME280;65265;53.200;6.080;2022-12-24T04:28:18;100619.22;;;7.36;98.55
76434;BME280;65265;53.200;6.080;2022-12-24T04:33:09;100620.59;;;7.30;98.48
76434;BME280;65265;53.200;6.080;2022-12-24T04:38:01;100622.97;;;7.27;98.56
76434;BME280;65265;53.200;6.080;2022-12-24T04:42:52;100616.72;;;7.20;98.27
76434;BME280;65265;53.200;6.080;2022-12-24T04:47:46;100614.13;;;7.19;98.19
76434;BME280;65265;53.200;6.080;2022-12-24T04:52:37;100628.72;;;7.23;98.06
76434;BME280;65265;53.200;6.080;2022-12-24T04:57:30;100623.63;;;7.23;97.77
76434;BME280;65265;53.200;6.080;2022-12-24T05:02:21;100618.53;;;7.23;97.81
76434;BME280;65265;53.200;6.080;2022-12-24T05:07:14;100638.97;;;7.24;97.62
76434;BME280;65265;53.200;6.080;2022-12-24T05:12:06;100633.22;;;7.28;97.81
76434;BME280;65265;53.200;6.080;2022-12-24T05:16:57;100645.09;;;7.28;97.80
76434;BME280;65265;53.200;6.080;2022-12-24T05:21:49;100641.00;;;7.31;97.77
76434;BME280;65265;53.200;6.080;2022-12-24T05:27:02;100633.53;;;7.34;97.83
76434;BME280;65265;53.200;6.080;2022-12-24T05:31:53;100642.16;;;7.38;97.67
76434;BME280;65265;53.200;6.080;2022-12-24T05:36:45;100647.13;;;7.35;97.74
76434;BME280;65265;53.200;6.080;2022-12-24T05:41:36;100662.25;;;7.32;97.84
76434;BME280;65265;53.200;6.080;2022-12-24T05:46:29;100665.06;;;7.38;97.88
76434;BME280;65265;53.200;6.080;2022-12-24T05:51:21;100669.38;;;7.39;97.70
76434;BME280;65265;53.200;6.080;2022-12-24T05:56:15;100674.63;;;7.42;97.70
76434;BME280;65265;53.200;6.080;2022-12-24T06:01:07;100677.06;;;7.40;97.87
76434;BME280;65265;53.200;6.080;2022-12-24T06:06:03;100674.75;;;7.45;97.88
76434;BME280;65265;53.200;6.080;2022-12-24T06:10:55;100684.78;;;7.42;97.71
76434;BME280;65265;53.200;6.080;2022-12-24T06:15:47;100695.44;;;7.35;97.66
76434;BME280;65265;53.200;6.080;2022-12-24T06:20:38;100705.16;;;7.26;97.51
76434;BME280;65265;53.200;6.080;2022-12-24T06:25:32;100715.19;;;7.23;97.58
76434;BME280;65265;53.200;6.080;2022-12-24T06:30:24;100715.75;;;7.17;97.42
76434;BME280;65265;53.200;6.080;2022-12-24T06:35:16;100719.81;;;7.14;97.49
76434;BME280;65265;53.200;6.080;2022-12-24T06:40:08;100729.03;;;7.12;97.61
76434;BME280;65265;53.200;6.080;2022-12-24T06:45:02;100724.41;;;7.05;97.64
76434;BME280;65265;53.200;6.080;2022-12-24T06:49:54;100731.19;;;7.04;97.87
76434;BME280;65265;53.200;6.080;2022-12-24T06:54:45;100740.78;;;7.10;98.03
76434;BME280;65265;53.200;6.080;2022-12-24T06:59:37;100744.28;;;7.12;97.93
76434;BME280;65265;53.200;6.080;2022-12-24T07:04:30;100751.66;;;7.07;97.89
76434;BME280;65265;53.200;6.080;2022-12-24T07:09:21;100761.00;;;7.07;97.80
76434;BME280;65265;53.200;6.080;2022-12-24T07:14:13;100765.75;;;7.01;97.76
76434;BME280;65265;53.200;6.080;2022-12-24T07:19:04;100758.75;;;6.97;98.11
76434;BME280;65265;53.200;6.080;2022-12-24T07:23:59;100769.06;;;7.00;97.96
76434;BME280;65265;53.200;6.080;2022-12-24T07:28:50;100774.16;;;7.00;98.16
76434;BME280;65265;53.200;6.080;2022-12-24T07:33:41;100766.28;;;6.96;98.00
76434;BME280;65265;53.200;6.080;2022-12-24T07:38:34;100785.53;;;6.91;97.83
76434;BME280;65265;53.200;6.080;2022-12-24T07:43:27;100796.69;;;6.78;97.69
76434;BME280;65265;53.200;6.080;2022-12-24T07:48:18;100805.13;;;6.77;97.69
76434;BME280;65265;53.200;6.080;2022-12-24T07:53:10;100806.22;;;6.66;97.67
76434;BME280;65265;53.200;6.080;2022-12-24T07:58:02;100810.94;;;6.60;97.87
76434;BME280;65265;53.200;6.080;2022-12-24T08:02:55;100820.25;;;6.60;97.88
76434;BME280;65265;53.200;6.080;2022-12-24T08:07:49;100825.53;;;6.48;98.01
76434;BME280;65265;53.200;6.080;2022-12-24T08:12:40;100831.31;;;6.46;98.11
76434;BME280;65265;53.200;6.080;2022-12-24T08:17:31;100847.59;;;6.49;98.26
76434;BME280;65265;53.200;6.080;2022-12-24T08:22:24;100861.53;;;6.56;98.63
76434;BME280;65265;53.200;6.080;2022-12-24T08:27:16;100872.28;;;6.66;98.87
76434;BME280;65265;53.200;6.080;2022-12-24T08:32:07;100879.50;;;6.75;98.83
76434;BME280;65265;53.200;6.080;2022-12-24T08:36:59;100879.78;;;6.79;98.88
76434;BME280;65265;53.200;6.080;2022-12-24T08:41:51;100886.16;;;6.87;98.87
76434;BME280;65265;53.200;6.080;2022-12-24T08:46:43;100890.00;;;6.95;98.95
76434;BME280;65265;53.200;6.080;2022-12-24T08:51:35;100905.66;;;7.03;98.90
76434;BME280;65265;53.200;6.080;2022-12-24T08:56:27;100909.47;;;7.10;99.01
76434;BME280;65265;53.200;6.080;2022-12-24T09:01:20;100914.44;;;7.23;98.96
76434;BME280;65265;53.200;6.080;2022-12-24T09:06:12;100920.81;;;7.31;99.08
76434;BME280;65265;53.200;6.080;2022-12-24T09:11:06;100930.22;;;7.48;99.10
76434;BME280;65265;53.200;6.080;2022-12-24T09:15:57;100927.81;;;7.51;98.80
76434;BME280;65265;53.200;6.080;2022-12-24T09:20:50;100929.03;;;7.58;98.80
76434;BME280;65265;53.200;6.080;2022-12-24T09:25:43;100935.06;;;7.60;98.67
76434;BME280;65265;53.200;6.080;2022-12-24T09:30:35;100943.97;;;7.68;98.77
76434;BME280;65265;53.200;6.080;2022-12-24T09:35:27;100952.09;;;7.77;98.80
76434;BME280;65265;53.200;6.080;2022-12-24T09:40:24;100958.72;;;7.89;98.88
76434;BME280;65265;53.200;6.080;2022-12-24T09:45:23;100961.94;;;8.03;98.83
76434;BME280;65265;53.200;6.080;2022-12-24T09:50:31;100961.63;;;8.13;98.84
76434;BME280;65265;53.200;6.080;2022-12-24T09:55:31;100974.06;;;8.23;98.49
76434;BME280;65265;53.200;6.080;2022-12-24T10:00:26;100976.13;;;8.30;98.38
76434;BME280;65265;53.200;6.080;2022-12-24T10:05:35;100986.47;;;8.33;98.18
76434;BME280;65265;53.200;6.080;2022-12-24T10:10:36;100983.28;;;8.37;97.94
76434;BME280;65265;53.200;6.080;2022-12-24T10:15:35;100983.59;;;8.43;97.63
76434;BME280;65265;53.200;6.080;2022-12-24T10:20:38;100982.66;;;8.41;97.51
76434;BME280;65265;53.200;6.080;2022-12-24T10:25:37;100986.94;;;8.42;97.30
76434;BME280;65265;53.200;6.080;2022-12-24T10:30:32;100993.78;;;8.43;97.30
76434;BME280;65265;53.200;6.080;2022-12-24T10:35:27;100983.88;;;8.49;97.27
76434;BME280;65265;53.200;6.080;2022-12-24T10:40:27;100991.19;;;8.59;96.85
76434;BME280;65265;53.200;6.080;2022-12-24T10:45:25;100996.47;;;8.62;96.69
76434;BME280;65265;53.200;6.080;2022-12-24T10:50:23;101011.97;;;8.66;96.90
76434;BME280;65265;53.200;6.080;2022-12-24T10:55:22;100995.94;;;8.69;96.42
76434;BME280;65265;53.200;6.080;2022-12-24T11:00:18;100999.44;;;8.71;96.30
76434;BME280;65265;53.200;6.080;2022-12-24T11:05:27;101003.44;;;8.66;95.95
76434;BME280;65265;53.200;6.080;2022-12-24T11:10:22;101013.22;;;8.74;95.20
76434;BME280;65265;53.200;6.080;2022-12-24T11:15:17;101013.16;;;8.73;94.74
76434;BME280;65265;53.200;6.080;2022-12-24T11:20:15;101008.13;;;8.74;94.44
76434;BME280;65265;53.200;6.080;2022-12-24T11:25:21;101016.88;;;8.79;94.63
76434;BME280;65265;53.200;6.080;2022-12-24T11:30:22;101029.56;;;8.78;94.46
76434;BME280;65265;53.200;6.080;2022-12-24T11:35:16;101027.81;;;8.77;94.28
76434;BME280;65265;53.200;6.080;2022-12-24T11:40:20;101028.66;;;8.77;93.50
76434;BME280;65265;53.200;6.080;2022-12-24T11:45:17;101045.66;;;8.77;93.16
76434;BME280;65265;53.200;6.080;2022-12-24T11:50:22;101052.72;;;8.82;93.15
76434;BME280;65265;53.200;6.080;2022-12-24T11:55:19;101046.59;;;8.79;93.00
76434;BME280;65265;53.200;6.080;2022-12-24T12:00:12;101046.81;;;8.83;92.04
76434;BME280;65265;53.200;6.080;2022-12-24T12:05:09;101049.28;;;8.82;92.23
76434;BME280;65265;53.200;6.080;2022-12-24T12:10:05;101071.66;;;8.87;91.73
76434;BME280;65265;53.200;6.080;2022-12-24T12:15:04;101075.91;;;8.87;92.13
76434;BME280;65265;53.200;6.080;2022-12-24T12:19:59;101077.50;;;8.85;92.64
76434;BME280;65265;53.200;6.080;2022-12-24T12:24:54;101084.19;;;8.83;92.78
76434;BME280;65265;53.200;6.080;2022-12-24T12:29:51;101083.41;;;8.84;92.71
76434;BME280;65265;53.200;6.080;2022-12-24T12:34:54;101083.31;;;8.82;92.61
76434;BME280;65265;53.200;6.080;2022-12-24T12:39:49;101089.94;;;8.79;92.29
76434;BME280;65265;53.200;6.080;2022-12-24T12:45:02;101091.53;;;8.77;92.47
76434;BME280;65265;53.200;6.080;2022-12-24T12:50:08;101093.28;;;8.78;91.77
76434;BME280;65265;53.200;6.080;2022-12-24T12:55:19;101106.03;;;8.78;91.33
76434;BME280;65265;53.200;6.080;2022-12-24T13:00:15;101109.25;;;8.74;91.56
76434;BME280;65265;53.200;6.080;2022-12-24T13:05:51;101114.09;;;8.69;91.36
76434;BME280;65265;53.200;6.080;2022-12-24T13:11:03;101115.47;;;8.63;91.66
76434;BME280;65265;53.200;6.080;2022-12-24T13:16:06;101123.75;;;8.59;91.76
76434;BME280;65265;53.200;6.080;2022-12-24T13:21:13;101129.56;;;8.56;91.63
76434;BME280;65265;53.200;6.080;2022-12-24T13:26:10;101132.84;;;8.54;91.12
76434;BME280;65265;53.200;6.080;2022-12-24T13:31:25;101145.44;;;8.51;90.84
76434;BME280;65265;53.200;6.080;2022-12-24T13:36:22;101140.94;;;8.47;90.84
76434;BME280;65265;53.200;6.080;2022-12-24T13:41:37;101148.09;;;8.38;91.26
76434;BME280;65265;53.200;6.080;2022-12-24T13:46:48;101148.66;;;8.32;91.43
76434;BME280;65265;53.200;6.080;2022-12-24T13:51:42;101162.28;;;8.33;91.76
76434;BME280;65265;53.200;6.080;2022-12-24T13:56:35;101163.00;;;8.30;91.66
76434;BME280;65265;53.200;6.080;2022-12-24T14:01:33;101175.81;;;8.32;91.45
76434;BME280;65265;53.200;6.080;2022-12-24T14:06:28;101185.59;;;8.24;91.22
76434;BME280;65265;53.200;6.080;2022-12-24T14:11:24;101197.31;;;8.21;91.07
76434;BME280;65265;53.200;6.080;2022-12-24T14:16:17;101203.69;;;8.14;91.14
76434;BME280;65265;53.200;6.080;2022-12-24T14:21:14;101203.56;;;7.97;91.09
76434;BME280;65265;53.200;6.080;2022-12-24T14:26:11;101208.84;;;7.85;91.28
76434;BME280;65265;53.200;6.080;2022-12-24T14:31:13;101222.03;;;7.78;91.60
76434;BME280;65265;53.200;6.080;2022-12-24T14:36:06;101223.44;;;7.73;91.65
76434;BME280;65265;53.200;6.080;2022-12-24T14:41:05;101229.84;;;7.67;91.66
76434;BME280;65265;53.200;6.080;2022-12-24T14:46:09;101237.91;;;7.60;91.66
76434;BME280;65265;53.200;6.080;2022-12-24T14:51:07;101249.13;;;7.49;91.83
76434;BME280;65265;53.200;6.080;2022-12-24T14:56:08;101259.41;;;7.36;92.18
76434;BME280;65265;53.200;6.080;2022-12-24T15:01:00;101274.59;;;7.34;92.23
76434;BME280;65265;53.200;6.080;2022-12-24T15:05:56;101277.28;;;7.23;92.55
76434;BME280;65265;53.200;6.080;2022-12-24T15:10:51;101284.00;;;7.08;92.50
76434;BME280;65265;53.200;6.080;2022-12-24T15:15:45;101295.94;;;7.09;92.96
76434;BME280;65265;53.200;6.080;2022-12-24T15:20:42;101293.63;;;6.99;92.82
76434;BME280;65265;53.200;6.080;2022-12-24T15:25:37;101293.16;;;6.92;93.04
76434;BME280;65265;53.200;6.080;2022-12-24T15:30:28;101300.81;;;6.79;93.13
76434;BME280;65265;53.200;6.080;2022-12-24T15:35:35;101314.09;;;6.75;93.48
76434;BME280;65265;53.200;6.080;2022-12-24T15:40:33;101316.97;;;6.66;93.79
76434;BME280;65265;53.200;6.080;2022-12-24T15:45:28;101318.34;;;6.61;93.87
76434;BME280;65265;53.200;6.080;2022-12-24T15:50:24;101329.91;;;6.43;93.87
76434;BME280;65265;53.200;6.080;2022-12-24T15:55:28;101342.97;;;6.36;94.49
76434;BME280;65265;53.200;6.080;2022-12-24T16:00:22;101344.16;;;6.28;94.58
76434;BME280;65265;53.200;6.080;2022-12-24T16:10:25;101352.06;;;6.20;94.99
76434;BME280;65265;53.200;6.080;2022-12-24T16:15:17;101350.00;;;6.14;95.43
76434;BME280;65265;53.200;6.080;2022-12-24T16:20:19;101352.94;;;6.20;95.61
76434;BME280;65265;53.200;6.080;2022-12-24T16:25:21;101355.47;;;6.07;95.27
76434;BME280;65265;53.200;6.080;2022-12-24T16:30:15;101363.66;;;6.03;95.30
76434;BME280;65265;53.200;6.080;2022-12-24T16:35:19;101363.28;;;5.97;95.55
76434;BME280;65265;53.200;6.080;2022-12-24T16:40:12;101358.97;;;5.96;95.89
76434;BME280;65265;53.200;6.080;2022-12-24T16:45:05;101348.41;;;5.90;96.00
76434;BME280;65265;53.200;6.080;2022-12-24T16:49:57;101365.38;;;5.91;96.33
76434;BME280;65265;53.200;6.080;2022-12-24T16:54:53;101364.06;;;5.96;96.40
76434;BME280;65265;53.200;6.080;2022-12-24T16:59:45;101373.97;;;5.93;96.64
76434;BME280;65265;53.200;6.080;2022-12-24T17:04:36;101381.50;;;5.92;96.67
76434;BME280;65265;53.200;6.080;2022-12-24T17:09:28;101372.50;;;5.84;96.57
76434;BME280;65265;53.200;6.080;2022-12-24T17:14:22;101370.00;;;5.72;96.67
76434;BME280;65265;53.200;6.080;2022-12-24T17:19:14;101374.00;;;5.69;96.81
76434;BME280;65265;53.200;6.080;2022-12-24T17:24:07;101378.75;;;5.64;97.02
76434;BME280;65265;53.200;6.080;2022-12-24T17:28:59;101376.53;;;5.69;97.31
76434;BME280;65265;53.200;6.080;2022-12-24T17:33:54;101376.41;;;5.67;97.21
76434;BME280;65265;53.200;6.080;2022-12-24T17:38:46;101380.97;;;5.60;97.18
76434;BME280;65265;53.200;6.080;2022-12-24T17:43:38;101378.13;;;5.55;97.08
76434;BME280;65265;53.200;6.080;2022-12-24T17:48:30;101384.56;;;5.50;97.31
76434;BME280;65265;53.200;6.080;2022-12-24T17:53:23;101372.13;;;5.42;97.24
76434;BME280;65265;53.200;6.080;2022-12-24T17:58:14;101383.72;;;5.38;97.17
76434;BME280;65265;53.200;6.080;2022-12-24T18:03:08;101377.47;;;5.33;97.18
76434;BME280;65265;53.200;6.080;2022-12-24T18:08:02;101379.00;;;5.31;97.23
76434;BME280;65265;53.200;6.080;2022-12-24T18:12:55;101376.28;;;5.28;97.46
76434;BME280;65265;53.200;6.080;2022-12-24T18:17:49;101374.72;;;5.30;97.81
76434;BME280;65265;53.200;6.080;2022-12-24T18:22:41;101376.28;;;5.28;97.78
76434;BME280;65265;53.200;6.080;2022-12-24T18:27:33;101374.03;;;5.33;98.05
76434;BME280;65265;53.200;6.080;2022-12-24T18:32:26;101375.13;;;5.36;98.38
76434;BME280;65265;53.200;6.080;2022-12-24T18:37:18;101370.28;;;5.39;98.24
76434;BME280;65265;53.200;6.080;2022-12-24T18:42:09;101365.41;;;5.42;98.26
76434;BME280;65265;53.200;6.080;2022-12-24T18:47:03;101354.91;;;5.25;98.10
76434;BME280;65265;53.200;6.080;2022-12-24T18:51:57;101374.41;;;5.26;98.32
76434;BME280;65265;53.200;6.080;2022-12-24T18:56:48;101382.22;;;5.29;98.37
76434;BME280;65265;53.200;6.080;2022-12-24T19:01:43;101385.09;;;5.22;98.42
76434;BME280;65265;53.200;6.080;2022-12-24T19:06:37;101384.44;;;5.24;98.46
76434;BME280;65265;53.200;6.080;2022-12-24T19:11:31;101382.00;;;5.26;98.64
76434;BME280;65265;53.200;6.080;2022-12-24T19:16:24;101374.91;;;5.33;98.95
76434;BME280;65265;53.200;6.080;2022-12-24T19:21:16;101381.72;;;5.46;99.05
76434;BME280;65265;53.200;6.080;2022-12-24T19:26:08;101391.16;;;5.48;98.86
76434;BME280;65265;53.200;6.080;2022-12-24T19:31:03;101402.53;;;5.53;98.94
76434;BME280;65265;53.200;6.080;2022-12-24T19:35:54;101410.13;;;5.53;99.06
76434;BME280;65265;53.200;6.080;2022-12-24T19:40:45;101404.34;;;5.67;98.88
76434;BME280;65265;53.200;6.080;2022-12-24T19:45:37;101409.59;;;5.70;98.90
76434;BME280;65265;53.200;6.080;2022-12-24T19:50:30;101416.03;;;5.65;98.70
76434;BME280;65265;53.200;6.080;2022-12-24T19:55:22;101420.91;;;5.62;98.42
76434;BME280;65265;53.200;6.080;2022-12-24T20:00:14;101421.13;;;5.54;98.31
76434;BME280;65265;53.200;6.080;2022-12-24T20:05:06;101425.91;;;5.49;98.19
76434;BME280;65265;53.200;6.080;2022-12-24T20:09:59;101432.53;;;5.47;98.38
76434;BME280;65265;53.200;6.080;2022-12-24T20:14:53;101439.72;;;5.41;98.38
76434;BME280;65265;53.200;6.080;2022-12-24T20:19:45;101438.28;;;5.45;98.55
76434;BME280;65265;53.200;6.080;2022-12-24T20:24:36;101440.56;;;5.53;98.59
76434;BME280;65265;53.200;6.080;2022-12-24T20:29:30;101433.28;;;5.58;98.49
76434;BME280;65265;53.200;6.080;2022-12-24T20:34:22;101434.19;;;5.47;98.28
76434;BME280;65265;53.200;6.080;2022-12-24T20:39:13;101440.28;;;5.37;98.26
76434;BME280;65265;53.200;6.080;2022-12-24T20:44:06;101434.81;;;5.31;98.08
76434;BME280;65265;53.200;6.080;2022-12-24T20:48:59;101431.63;;;5.22;98.27
76434;BME280;65265;53.200;6.080;2022-12-24T20:53:51;101429.88;;;5.21;98.22
76434;BME280;65265;53.200;6.080;2022-12-24T20:58:50;101426.59;;;5.11;98.39
76434;BME280;65265;53.200;6.080;2022-12-24T21:03:41;101421.97;;;5.05;98.32
76434;BME280;65265;53.200;6.080;2022-12-24T21:08:35;101418.00;;;4.97;98.27
76434;BME280;65265;53.200;6.080;2022-12-24T21:13:27;101424.06;;;4.99;98.50
76434;BME280;65265;53.200;6.080;2022-12-24T21:18:18;101418.88;;;5.09;98.94
76434;BME280;65265;53.200;6.080;2022-12-24T21:23:11;101411.91;;;5.18;99.05
76434;BME280;65265;53.200;6.080;2022-12-24T21:28:04;101401.72;;;5.30;99.29
76434;BME280;65265;53.200;6.080;2022-12-24T21:32:55;101375.28;;;5.51;99.46
76434;BME280;65265;53.200;6.080;2022-12-24T21:37:47;101377.34;;;5.56;99.37
76434;BME280;65265;53.200;6.080;2022-12-24T21:42:38;101366.22;;;5.54;99.33
76434;BME280;65265;53.200;6.080;2022-12-24T21:47:32;101373.66;;;5.51;99.12
76434;BME280;65265;53.200;6.080;2022-12-24T21:52:24;101371.78;;;5.49;99.03
76434;BME280;65265;53.200;6.080;2022-12-24T21:57:15;101371.56;;;5.46;99.15
76434;BME280;65265;53.200;6.080;2022-12-24T22:02:24;101393.81;;;5.50;99.17
76434;BME280;65265;53.200;6.080;2022-12-24T22:07:19;101398.22;;;5.52;99.22
76434;BME280;65265;53.200;6.080;2022-12-24T22:12:30;101405.47;;;5.59;99.46
76434;BME280;65265;53.200;6.080;2022-12-24T22:17:22;101389.31;;;5.70;99.56
76434;BME280;65265;53.200;6.080;2022-12-24T22:22:13;101396.78;;;5.80;99.67
76434;BME280;65265;53.200;6.080;2022-12-24T22:27:06;101403.47;;;5.91;99.66
76434;BME280;65265;53.200;6.080;2022-12-24T22:31:58;101405.53;;;5.97;99.83
76434;BME280;65265;53.200;6.080;2022-12-24T22:36:49;101394.13;;;6.03;99.77
76434;BME280;65265;53.200;6.080;2022-12-24T22:41:41;101401.72;;;6.03;99.70
76434;BME280;65265;53.200;6.080;2022-12-24T22:46:34;101399.91;;;6.01;99.39
76434;BME280;65265;53.200;6.080;2022-12-24T22:51:25;101394.50;;;5.96;99.45
76434;BME280;65265;53.200;6.080;2022-12-24T22:56:19;101389.00;;;5.90;99.43
76434;BME280;65265;53.200;6.080;2022-12-24T23:01:11;101389.22;;;5.93;99.44
76434;BME280;65265;53.200;6.080;2022-12-24T23:06:05;101403.72;;;6.07;99.58
76434;BME280;65265;53.200;6.080;2022-12-24T23:11:04;101398.03;;;5.98;99.38
76434;BME280;65265;53.200;6.080;2022-12-24T23:16:00;101391.56;;;5.90;99.37
76434;BME280;65265;53.200;6.080;2022-12-24T23:20:51;101390.28;;;5.84;99.55
76434;BME280;65265;53.200;6.080;2022-12-24T23:25:44;101404.31;;;5.79;99.42
76434;BME280;65265;53.200;6.080;2022-12-24T23:30:36;101410.69;;;5.74;99.39
76434;BME280;65265;53.200;6.080;2022-12-24T23:35:27;101407.84;;;5.69;99.45
76434;BME280;65265;53.200;6.080;2022-12-24T23:40:19;101400.03;;;5.66;99.42
76434;BME280;65265;53.200;6.080;2022-12-24T23:45:12;101406.00;;;5.67;99.33
76434;BME280;65265;53.200;6.080;2022-12-24T23:50:04;101405.56;;;5.61;99.45
76434;BME280;65265;53.200;6.080;2022-12-24T23:54:56;101395.13;;;5.56;99.46
76434;BME280;65265;53.200;6.080;2022-12-24T23:59:47;101383.41;;;5.58;99.53
